Overview Statistics Trail Chart Weather Telemetry Raw packets
 

This is the latest recevied weather packets stored in our database for station/object WMKD. If no packets are shown the sender has not sent any weather packets the latest 10 day(s).

<< 4 5 6 7 8 9 10 >>
Time Temp. Humidity Pressure Rain* Wind** Luminosity Snow
1777630186 30.56° C 66% 1007 hPa - - - -
1777626586 31.67° C 62% 1007 hPa - - - -
1777622985 31.67° C 66% 1006 hPa - - - -
1777619382 32.78° C 62% 1007 hPa - - - -
1777615784 32.78° C 62% 1008 hPa - - - -
1777612185 30.56° C 70% 1010 hPa - - - -
1777608582 28.89° C 79% 1011 hPa - - - -
1777604982 28.89° C 79% 1011 hPa - - - -
1777601382 27.78° C 83% 1011 hPa - - - -
1777597785 25.56° C 94% 1010 hPa - - - -
1777594182 25.56° C 94% 1009 hPa - - - -
1777590582 25.56° C 94% 1008 hPa - - - -
1777586981 25° C 10% - - - - -
1777583384 25° C 94% 1008 hPa - - - -
1777579782 25.56° C 94% 1008 hPa - - - -
1777576181 25.56° C 94% 1009 hPa - - - -
1777572581 25.56° C 94% 1009 hPa - - - -
1777568984 26.67° C 88% 1010 hPa - - - -
1777565381 26.67° C 88% 1010 hPa - - - -
1777561782 27.78° C 88% 1010 hPa - - - -
1777558181 27.78° C 83% 1009 hPa - - - -
1777554584 27.78° C 88% 1009 hPa - - - -
1777550981 30° C 79% 1008 hPa - - - -
1777547381 30.56° C 70% 1007 hPa - - - -
1777543780 32.78° C 59% 1006 hPa - - - -

* Rain since midnight (hover to see other rain measurements)
** Current wind speed in m/s (hover to see current wind gust speed)